sensor_id;sensor_type;location;lat;lon;timestamp;temperature;humidity
37281;DHT22;23169;41.804;12.596;2022-08-05T00:00:25;26.60;99.90
37281;DHT22;23169;41.804;12.596;2022-08-05T00:02:54;26.50;99.90
37281;DHT22;23169;41.804;12.596;2022-08-05T00:05:23;26.50;99.90
37281;DHT22;23169;41.804;12.596;2022-08-05T00:07:52;26.50;99.90
37281;DHT22;23169;41.804;12.596;2022-08-05T00:10:20;26.50;99.90
37281;DHT22;23169;41.804;12.596;2022-08-05T00:12:50;26.60;99.90
37281;DHT22;23169;41.804;12.596;2022-08-05T00:15:18;26.60;99.90
37281;DHT22;23169;41.804;12.596;2022-08-05T00:17:47;26.60;99.90
37281;DHT22;23169;41.804;12.596;2022-08-05T00:20:17;26.60;99.90
37281;DHT22;23169;41.804;12.596;2022-08-05T00:22:45;26.60;99.90
37281;DHT22;23169;41.804;12.596;2022-08-05T00:25:14;26.60;99.90
37281;DHT22;23169;41.804;12.596;2022-08-05T00:27:43;26.60;99.90
37281;DHT22;23169;41.804;12.596;2022-08-05T00:30:11;26.50;99.90
37281;DHT22;23169;41.804;12.596;2022-08-05T00:32:40;26.50;99.90
37281;DHT22;23169;41.804;12.596;2022-08-05T00:35:08;26.50;99.90
37281;DHT22;23169;41.804;12.596;2022-08-05T00:37:37;26.50;99.90
37281;DHT22;23169;41.804;12.596;2022-08-05T00:40:06;26.60;99.90
37281;DHT22;23169;41.804;12.596;2022-08-05T00:42:36;26.70;99.90
37281;DHT22;23169;41.804;12.596;2022-08-05T00:45:06;26.70;99.90
37281;DHT22;23169;41.804;12.596;2022-08-05T00:47:38;26.70;99.90
37281;DHT22;23169;41.804;12.596;2022-08-05T00:50:08;26.80;99.90
37281;DHT22;23169;41.804;12.596;2022-08-05T00:52:40;26.80;99.90
37281;DHT22;23169;41.804;12.596;2022-08-05T00:55:09;26.90;99.90
37281;DHT22;23169;41.804;12.596;2022-08-05T00:57:37;26.80;99.90
37281;DHT22;23169;41.804;12.596;2022-08-05T01:00:06;26.90;99.90
37281;DHT22;23169;41.804;12.596;2022-08-05T01:02:37;26.90;99.90
37281;DHT22;23169;41.804;12.596;2022-08-05T01:05:06;26.90;16.90
37281;DHT22;23169;41.804;12.596;2022-08-05T01:07:35;26.90;1.00
37281;DHT22;23169;41.804;12.596;2022-08-05T01:10:05;26.90;99.90
37281;DHT22;23169;41.804;12.596;2022-08-05T01:12:36;26.90;99.90
37281;DHT22;23169;41.804;12.596;2022-08-05T01:15:07;26.90;99.90
37281;DHT22;23169;41.804;12.596;2022-08-05T01:17:44;26.90;99.90
37281;DHT22;23169;41.804;12.596;2022-08-05T01:20:36;26.80;99.90
37281;DHT22;23169;41.804;12.596;2022-08-05T01:29:16;26.90;99.90
37281;DHT22;23169;41.804;12.596;2022-08-05T01:34:03;26.90;1.00
37281;DHT22;23169;41.804;12.596;2022-08-05T01:36:37;26.80;1.00
37281;DHT22;23169;41.804;12.596;2022-08-05T01:39:06;26.90;1.00
37281;DHT22;23169;41.804;12.596;2022-08-05T01:41:38;26.80;31.30
37281;DHT22;23169;41.804;12.596;2022-08-05T01:44:07;26.80;55.20
37281;DHT22;23169;41.804;12.596;2022-08-05T01:46:38;26.80;37.40
37281;DHT22;23169;41.804;12.596;2022-08-05T01:49:10;26.80;1.00
37281;DHT22;23169;41.804;12.596;2022-08-05T01:51:41;26.80;99.90
37281;DHT22;23169;41.804;12.596;2022-08-05T01:54:11;26.70;99.90
37281;DHT22;23169;41.804;12.596;2022-08-05T01:56:44;26.70;99.90
37281;DHT22;23169;41.804;12.596;2022-08-05T01:59:16;26.70;99.90
37281;DHT22;23169;41.804;12.596;2022-08-05T02:01:46;26.70;99.90
37281;DHT22;23169;41.804;12.596;2022-08-05T02:04:17;26.70;99.90
37281;DHT22;23169;41.804;12.596;2022-08-05T02:06:48;26.60;99.90
37281;DHT22;23169;41.804;12.596;2022-08-05T02:09:17;26.60;99.90
37281;DHT22;23169;41.804;12.596;2022-08-05T02:14:46;26.60;99.90
37281;DHT22;23169;41.804;12.596;2022-08-05T02:17:25;26.60;1.00
37281;DHT22;23169;41.804;12.596;2022-08-05T02:20:00;26.60;99.90
37281;DHT22;23169;41.804;12.596;2022-08-05T02:22:35;26.60;99.90
37281;DHT22;23169;41.804;12.596;2022-08-05T02:25:13;26.50;1.00
37281;DHT22;23169;41.804;12.596;2022-08-05T02:27:45;26.50;3.60
37281;DHT22;23169;41.804;12.596;2022-08-05T02:30:16;26.50;99.90
37281;DHT22;23169;41.804;12.596;2022-08-05T02:32:53;26.50;99.90
37281;DHT22;23169;41.804;12.596;2022-08-05T02:35:22;26.60;1.00
37281;DHT22;23169;41.804;12.596;2022-08-05T02:37:51;26.60;93.40
37281;DHT22;23169;41.804;12.596;2022-08-05T02:40:22;26.50;1.00
37281;DHT22;23169;41.804;12.596;2022-08-05T02:42:51;26.50;99.90
37281;DHT22;23169;41.804;12.596;2022-08-05T02:45:21;26.50;99.90
37281;DHT22;23169;41.804;12.596;2022-08-05T02:47:52;26.40;99.90
37281;DHT22;23169;41.804;12.596;2022-08-05T02:50:22;26.40;99.90
37281;DHT22;23169;41.804;12.596;2022-08-05T02:52:52;26.40;99.90
37281;DHT22;23169;41.804;12.596;2022-08-05T02:55:21;26.40;1.00
37281;DHT22;23169;41.804;12.596;2022-08-05T02:57:50;26.40;1.00
37281;DHT22;23169;41.804;12.596;2022-08-05T03:00:18;26.40;15.30
37281;DHT22;23169;41.804;12.596;2022-08-05T03:02:47;26.40;99.90
37281;DHT22;23169;41.804;12.596;2022-08-05T03:05:16;26.40;99.90
37281;DHT22;23169;41.804;12.596;2022-08-05T03:07:46;26.30;54.20
37281;DHT22;23169;41.804;12.596;2022-08-05T03:10:15;26.30;1.00
37281;DHT22;23169;41.804;12.596;2022-08-05T03:12:43;26.30;63.30
37281;DHT22;23169;41.804;12.596;2022-08-05T03:15:11;26.40;99.90
37281;DHT22;23169;41.804;12.596;2022-08-05T03:17:39;26.30;99.90
37281;DHT22;23169;41.804;12.596;2022-08-05T03:20:08;26.30;99.90
37281;DHT22;23169;41.804;12.596;2022-08-05T03:22:36;26.30;99.90
37281;DHT22;23169;41.804;12.596;2022-08-05T03:25:05;26.30;99.90
37281;DHT22;23169;41.804;12.596;2022-08-05T03:27:34;26.20;99.90
37281;DHT22;23169;41.804;12.596;2022-08-05T03:30:03;26.20;99.90
37281;DHT22;23169;41.804;12.596;2022-08-05T03:32:31;26.20;99.90
37281;DHT22;23169;41.804;12.596;2022-08-05T03:35:00;26.10;99.90
37281;DHT22;23169;41.804;12.596;2022-08-05T03:37:29;26.10;99.90
37281;DHT22;23169;41.804;12.596;2022-08-05T03:39:58;26.10;99.90
37281;DHT22;23169;41.804;12.596;2022-08-05T03:42:28;26.10;99.90
37281;DHT22;23169;41.804;12.596;2022-08-05T03:44:56;26.10;99.90
37281;DHT22;23169;41.804;12.596;2022-08-05T03:47:24;26.10;99.90
37281;DHT22;23169;41.804;12.596;2022-08-05T03:49:53;26.10;99.90
37281;DHT22;23169;41.804;12.596;2022-08-05T03:52:29;26.10;99.90
37281;DHT22;23169;41.804;12.596;2022-08-05T03:55:03;26.10;99.90
37281;DHT22;23169;41.804;12.596;2022-08-05T03:57:35;26.10;99.90
37281;DHT22;23169;41.804;12.596;2022-08-05T04:00:07;26.10;99.90
37281;DHT22;23169;41.804;12.596;2022-08-05T04:02:37;26.00;99.90
37281;DHT22;23169;41.804;12.596;2022-08-05T04:05:07;26.00;99.90
37281;DHT22;23169;41.804;12.596;2022-08-05T04:07:39;26.00;99.90
37281;DHT22;23169;41.804;12.596;2022-08-05T04:10:08;26.00;99.90
37281;DHT22;23169;41.804;12.596;2022-08-05T04:12:37;26.00;99.90
37281;DHT22;23169;41.804;12.596;2022-08-05T04:15:09;26.00;99.90
37281;DHT22;23169;41.804;12.596;2022-08-05T04:17:38;26.00;99.90
37281;DHT22;23169;41.804;12.596;2022-08-05T04:20:06;26.00;99.90
37281;DHT22;23169;41.804;12.596;2022-08-05T04:22:35;26.00;99.90
37281;DHT22;23169;41.804;12.596;2022-08-05T04:25:04;26.10;99.90
37281;DHT22;23169;41.804;12.596;2022-08-05T04:27:32;26.10;99.90
37281;DHT22;23169;41.804;12.596;2022-08-05T04:30:00;26.10;99.90
37281;DHT22;23169;41.804;12.596;2022-08-05T04:32:29;26.10;99.90
37281;DHT22;23169;41.804;12.596;2022-08-05T04:34:57;26.10;99.90
37281;DHT22;23169;41.804;12.596;2022-08-05T04:37:26;26.10;99.90
37281;DHT22;23169;41.804;12.596;2022-08-05T04:39:55;26.10;99.90
37281;DHT22;23169;41.804;12.596;2022-08-05T04:42:23;26.10;99.90
37281;DHT22;23169;41.804;12.596;2022-08-05T04:44:52;26.10;99.90
37281;DHT22;23169;41.804;12.596;2022-08-05T04:47:21;26.20;99.90
37281;DHT22;23169;41.804;12.596;2022-08-05T04:49:49;26.20;99.90
37281;DHT22;23169;41.804;12.596;2022-08-05T04:52:17;26.20;99.90
37281;DHT22;23169;41.804;12.596;2022-08-05T04:54:45;26.20;99.90
37281;DHT22;23169;41.804;12.596;2022-08-05T04:57:16;26.30;99.90
37281;DHT22;23169;41.804;12.596;2022-08-05T04:59:56;26.30;99.90
37281;DHT22;23169;41.804;12.596;2022-08-05T05:02:25;26.30;99.90
37281;DHT22;23169;41.804;12.596;2022-08-05T05:04:54;26.40;99.90
37281;DHT22;23169;41.804;12.596;2022-08-05T05:07:23;26.50;99.90
37281;DHT22;23169;41.804;12.596;2022-08-05T05:09:52;26.50;99.90
37281;DHT22;23169;41.804;12.596;2022-08-05T05:12:20;26.50;99.90
37281;DHT22;23169;41.804;12.596;2022-08-05T05:14:48;26.50;99.90
37281;DHT22;23169;41.804;12.596;2022-08-05T05:17:17;26.50;99.90
37281;DHT22;23169;41.804;12.596;2022-08-05T05:19:46;26.60;99.90
37281;DHT22;23169;41.804;12.596;2022-08-05T05:22:14;26.60;99.90
37281;DHT22;23169;41.804;12.596;2022-08-05T05:24:42;26.60;99.90
37281;DHT22;23169;41.804;12.596;2022-08-05T05:27:10;26.60;99.90
37281;DHT22;23169;41.804;12.596;2022-08-05T05:29:42;26.60;99.90
37281;DHT22;23169;41.804;12.596;2022-08-05T05:32:10;26.70;99.90
37281;DHT22;23169;41.804;12.596;2022-08-05T05:34:38;26.70;99.90
37281;DHT22;23169;41.804;12.596;2022-08-05T05:37:06;26.80;99.90
37281;DHT22;23169;41.804;12.596;2022-08-05T05:39:34;26.80;99.90
37281;DHT22;23169;41.804;12.596;2022-08-05T05:42:03;26.80;99.90
37281;DHT22;23169;41.804;12.596;2022-08-05T05:44:32;26.90;99.90
37281;DHT22;23169;41.804;12.596;2022-08-05T05:47:01;26.90;99.90
37281;DHT22;23169;41.804;12.596;2022-08-05T05:49:30;26.90;99.90
37281;DHT22;23169;41.804;12.596;2022-08-05T05:51:59;27.00;99.90
37281;DHT22;23169;41.804;12.596;2022-08-05T05:54:27;27.00;99.90
37281;DHT22;23169;41.804;12.596;2022-08-05T05:56:56;27.10;99.90
37281;DHT22;23169;41.804;12.596;2022-08-05T05:59:25;27.20;99.90
37281;DHT22;23169;41.804;12.596;2022-08-05T06:01:53;27.20;99.90
37281;DHT22;23169;41.804;12.596;2022-08-05T06:04:22;27.20;99.90
37281;DHT22;23169;41.804;12.596;2022-08-05T06:06:50;27.20;99.90
37281;DHT22;23169;41.804;12.596;2022-08-05T06:09:18;27.30;99.90
37281;DHT22;23169;41.804;12.596;2022-08-05T06:11:46;27.30;99.90
37281;DHT22;23169;41.804;12.596;2022-08-05T06:14:17;27.30;99.90
37281;DHT22;23169;41.804;12.596;2022-08-05T06:16:45;27.40;99.90
37281;DHT22;23169;41.804;12.596;2022-08-05T06:19:14;27.40;99.90
37281;DHT22;23169;41.804;12.596;2022-08-05T06:21:42;27.50;99.90
37281;DHT22;23169;41.804;12.596;2022-08-05T06:24:10;27.50;99.90
37281;DHT22;23169;41.804;12.596;2022-08-05T06:26:41;27.60;99.90
37281;DHT22;23169;41.804;12.596;2022-08-05T06:29:12;27.60;99.90
37281;DHT22;23169;41.804;12.596;2022-08-05T06:31:40;27.60;99.90
37281;DHT22;23169;41.804;12.596;2022-08-05T06:34:09;27.50;99.90
37281;DHT22;23169;41.804;12.596;2022-08-05T06:36:37;27.50;99.90
37281;DHT22;23169;41.804;12.596;2022-08-05T06:39:05;28.40;99.90
37281;DHT22;23169;41.804;12.596;2022-08-05T06:41:34;27.60;99.90
37281;DHT22;23169;41.804;12.596;2022-08-05T06:44:03;27.60;99.90
37281;DHT22;23169;41.804;12.596;2022-08-05T06:46:31;27.70;99.90
37281;DHT22;23169;41.804;12.596;2022-08-05T06:49:00;27.80;99.90
37281;DHT22;23169;41.804;12.596;2022-08-05T06:51:29;27.80;99.90
37281;DHT22;23169;41.804;12.596;2022-08-05T06:53:58;27.90;99.90
37281;DHT22;23169;41.804;12.596;2022-08-05T06:56:27;28.00;99.90
37281;DHT22;23169;41.804;12.596;2022-08-05T06:58:56;28.10;99.90
37281;DHT22;23169;41.804;12.596;2022-08-05T07:01:27;28.20;99.90
37281;DHT22;23169;41.804;12.596;2022-08-05T07:03:55;28.30;99.90
37281;DHT22;23169;41.804;12.596;2022-08-05T07:06:24;28.40;99.90
37281;DHT22;23169;41.804;12.596;2022-08-05T07:08:52;28.50;99.90
37281;DHT22;23169;41.804;12.596;2022-08-05T07:11:20;28.50;99.90
37281;DHT22;23169;41.804;12.596;2022-08-05T07:13:49;28.50;99.90
37281;DHT22;23169;41.804;12.596;2022-08-05T07:16:35;28.50;76.80
37281;DHT22;23169;41.804;12.596;2022-08-05T07:19:17;28.60;99.90
37281;DHT22;23169;41.804;12.596;2022-08-05T07:21:47;28.60;99.90
37281;DHT22;23169;41.804;12.596;2022-08-05T07:24:16;28.70;3.00
37281;DHT22;23169;41.804;12.596;2022-08-05T07:26:44;28.80;99.90
37281;DHT22;23169;41.804;12.596;2022-08-05T07:29:14;28.90;99.90
37281;DHT22;23169;41.804;12.596;2022-08-05T07:31:42;29.10;99.90
37281;DHT22;23169;41.804;12.596;2022-08-05T07:34:10;29.20;99.90
37281;DHT22;23169;41.804;12.596;2022-08-05T07:36:39;29.40;99.90
37281;DHT22;23169;41.804;12.596;2022-08-05T07:39:08;29.50;99.90
37281;DHT22;23169;41.804;12.596;2022-08-05T07:41:38;29.60;99.90
37281;DHT22;23169;41.804;12.596;2022-08-05T07:44:08;29.70;1.00
37281;DHT22;23169;41.804;12.596;2022-08-05T07:46:36;29.80;99.90
37281;DHT22;23169;41.804;12.596;2022-08-05T07:49:08;29.80;1.00
37281;DHT22;23169;41.804;12.596;2022-08-05T07:51:37;29.90;1.00
37281;DHT22;23169;41.804;12.596;2022-08-05T07:54:05;30.00;99.90
37281;DHT22;23169;41.804;12.596;2022-08-05T07:56:34;30.10;99.90
37281;DHT22;23169;41.804;12.596;2022-08-05T07:59:02;30.10;99.90
37281;DHT22;23169;41.804;12.596;2022-08-05T08:01:30;30.30;97.10
37281;DHT22;23169;41.804;12.596;2022-08-05T08:03:59;30.30;43.40
37281;DHT22;23169;41.804;12.596;2022-08-05T08:06:27;30.30;1.00
37281;DHT22;23169;41.804;12.596;2022-08-05T08:08:57;30.50;1.00
37281;DHT22;23169;41.804;12.596;2022-08-05T08:11:25;30.50;1.00
37281;DHT22;23169;41.804;12.596;2022-08-05T08:13:55;30.60;3.80
37281;DHT22;23169;41.804;12.596;2022-08-05T08:16:23;30.70;1.00
37281;DHT22;23169;41.804;12.596;2022-08-05T08:18:52;30.80;1.00
37281;DHT22;23169;41.804;12.596;2022-08-05T08:21:20;30.80;99.90
37281;DHT22;23169;41.804;12.596;2022-08-05T08:23:51;30.90;99.90
37281;DHT22;23169;41.804;12.596;2022-08-05T08:26:19;31.00;99.90
37281;DHT22;23169;41.804;12.596;2022-08-05T08:28:47;31.10;99.90
37281;DHT22;23169;41.804;12.596;2022-08-05T08:31:15;31.30;99.90
37281;DHT22;23169;41.804;12.596;2022-08-05T08:33:45;31.50;99.90
37281;DHT22;23169;41.804;12.596;2022-08-05T08:36:14;31.60;99.90
37281;DHT22;23169;41.804;12.596;2022-08-05T08:38:42;31.70;99.90
37281;DHT22;23169;41.804;12.596;2022-08-05T08:41:12;31.80;99.90
37281;DHT22;23169;41.804;12.596;2022-08-05T08:43:42;32.00;99.90
37281;DHT22;23169;41.804;12.596;2022-08-05T08:46:12;32.20;99.90
37281;DHT22;23169;41.804;12.596;2022-08-05T08:48:44;32.50;99.90
37281;DHT22;23169;41.804;12.596;2022-08-05T08:51:16;32.60;99.90
37281;DHT22;23169;41.804;12.596;2022-08-05T08:53:46;32.70;99.90
37281;DHT22;23169;41.804;12.596;2022-08-05T08:56:15;32.90;99.90
37281;DHT22;23169;41.804;12.596;2022-08-05T08:58:44;33.00;99.90
37281;DHT22;23169;41.804;12.596;2022-08-05T09:01:12;33.10;99.90
37281;DHT22;23169;41.804;12.596;2022-08-05T09:03:41;33.20;99.90
37281;DHT22;23169;41.804;12.596;2022-08-05T09:06:11;33.40;99.90
37281;DHT22;23169;41.804;12.596;2022-08-05T09:08:39;33.40;99.90
37281;DHT22;23169;41.804;12.596;2022-08-05T09:11:09;33.50;99.90
37281;DHT22;23169;41.804;12.596;2022-08-05T09:13:42;33.60;99.90
37281;DHT22;23169;41.804;12.596;2022-08-05T09:16:11;33.70;99.90
37281;DHT22;23169;41.804;12.596;2022-08-05T09:18:40;33.50;99.90
37281;DHT22;23169;41.804;12.596;2022-08-05T09:21:11;33.30;99.90
37281;DHT22;23169;41.804;12.596;2022-08-05T09:23:39;33.30;99.90
37281;DHT22;23169;41.804;12.596;2022-08-05T09:26:14;33.50;99.90
37281;DHT22;23169;41.804;12.596;2022-08-05T09:28:47;33.40;98.20
37281;DHT22;23169;41.804;12.596;2022-08-05T09:31:15;33.40;96.50
37281;DHT22;23169;41.804;12.596;2022-08-05T09:34:01;33.30;95.40
37281;DHT22;23169;41.804;12.596;2022-08-05T09:36:40;33.50;91.70
37281;DHT22;23169;41.804;12.596;2022-08-05T09:39:11;33.50;91.30
37281;DHT22;23169;41.804;12.596;2022-08-05T09:42:03;33.50;90.20
37281;DHT22;23169;41.804;12.596;2022-08-05T09:44:47;33.50;87.00
37281;DHT22;23169;41.804;12.596;2022-08-05T09:47:18;33.60;88.10
37281;DHT22;23169;41.804;12.596;2022-08-05T09:49:49;33.60;86.00
37281;DHT22;23169;41.804;12.596;2022-08-05T09:57:36;33.90;84.20
37281;DHT22;23169;41.804;12.596;2022-08-05T10:00:11;34.10;86.00
37281;DHT22;23169;41.804;12.596;2022-08-05T10:02:48;34.40;82.90
37281;DHT22;23169;41.804;12.596;2022-08-05T10:05:27;34.50;80.70
37281;DHT22;23169;41.804;12.596;2022-08-05T10:07:59;34.40;69.60
37281;DHT22;23169;41.804;12.596;2022-08-05T10:10:38;34.30;70.00
37281;DHT22;23169;41.804;12.596;2022-08-05T10:13:07;34.40;70.50
37281;DHT22;23169;41.804;12.596;2022-08-05T10:15:40;34.40;64.90
37281;DHT22;23169;41.804;12.596;2022-08-05T10:18:16;34.50;64.10
37281;DHT22;23169;41.804;12.596;2022-08-05T10:20:50;34.40;65.50
37281;DHT22;23169;41.804;12.596;2022-08-05T10:23:22;34.60;67.30
37281;DHT22;23169;41.804;12.596;2022-08-05T10:25:50;35.00;62.20
37281;DHT22;23169;41.804;12.596;2022-08-05T10:28:19;35.00;52.00
37281;DHT22;23169;41.804;12.596;2022-08-05T10:30:47;34.90;50.40
37281;DHT22;23169;41.804;12.596;2022-08-05T10:33:17;34.90;50.10
37281;DHT22;23169;41.804;12.596;2022-08-05T10:35:46;35.00;54.10
37281;DHT22;23169;41.804;12.596;2022-08-05T10:38:20;35.20;54.20
37281;DHT22;23169;41.804;12.596;2022-08-05T10:46:19;35.10;46.50
37281;DHT22;23169;41.804;12.596;2022-08-05T10:48:54;34.80;53.80
37281;DHT22;23169;41.804;12.596;2022-08-05T10:51:22;34.70;40.60
37281;DHT22;23169;41.804;12.596;2022-08-05T10:53:54;34.60;32.00
37281;DHT22;23169;41.804;12.596;2022-08-05T10:56:28;34.70;29.60
37281;DHT22;23169;41.804;12.596;2022-08-05T10:59:05;34.70;29.00
37281;DHT22;23169;41.804;12.596;2022-08-05T11:01:42;34.90;29.00
37281;DHT22;23169;41.804;12.596;2022-08-05T11:04:14;35.10;24.40
37281;DHT22;23169;41.804;12.596;2022-08-05T11:09:45;35.10;15.70
37281;DHT22;23169;41.804;12.596;2022-08-05T11:18:21;34.90;16.60
37281;DHT22;23169;41.804;12.596;2022-08-05T11:20:51;35.00;13.20
37281;DHT22;23169;41.804;12.596;2022-08-05T11:23:52;35.00;13.10
37281;DHT22;23169;41.804;12.596;2022-08-05T11:26:22;35.00;3.20
37281;DHT22;23169;41.804;12.596;2022-08-05T11:28:52;34.70;5.10
37281;DHT22;23169;41.804;12.596;2022-08-05T11:31:22;34.20;10.00
37281;DHT22;23169;41.804;12.596;2022-08-05T11:33:57;34.20;13.70
37281;DHT22;23169;41.804;12.596;2022-08-05T11:39:10;34.80;7.30
37281;DHT22;23169;41.804;12.596;2022-08-05T11:41:41;34.90;3.50
37281;DHT22;23169;41.804;12.596;2022-08-05T11:44:12;35.00;2.00
37281;DHT22;23169;41.804;12.596;2022-08-05T11:46:50;34.90;12.90
37281;DHT22;23169;41.804;12.596;2022-08-05T11:49:20;35.20;8.60
37281;DHT22;23169;41.804;12.596;2022-08-05T11:51:51;35.90;5.90
37281;DHT22;23169;41.804;12.596;2022-08-05T11:54:29;36.10;2.80
37281;DHT22;23169;41.804;12.596;2022-08-05T11:56:57;36.30;1.90
37281;DHT22;23169;41.804;12.596;2022-08-05T11:59:28;36.40;1.00
37281;DHT22;23169;41.804;12.596;2022-08-05T12:02:06;36.70;1.00
37281;DHT22;23169;41.804;12.596;2022-08-05T12:04:44;36.80;1.00
37281;DHT22;23169;41.804;12.596;2022-08-05T12:07:15;36.60;1.00
37281;DHT22;23169;41.804;12.596;2022-08-05T12:09:48;36.30;2.30
37281;DHT22;23169;41.804;12.596;2022-08-05T12:12:24;36.50;2.60
37281;DHT22;23169;41.804;12.596;2022-08-05T12:14:55;37.20;2.00
37281;DHT22;23169;41.804;12.596;2022-08-05T12:17:23;37.20;1.00
37281;DHT22;23169;41.804;12.596;2022-08-05T12:19:54;37.20;1.00
37281;DHT22;23169;41.804;12.596;2022-08-05T12:22:27;37.20;1.00
37281;DHT22;23169;41.804;12.596;2022-08-05T12:24:58;37.20;1.00
37281;DHT22;23169;41.804;12.596;2022-08-05T12:27:28;37.30;1.00
37281;DHT22;23169;41.804;12.596;2022-08-05T12:32:32;36.80;1.00
37281;DHT22;23169;41.804;12.596;2022-08-05T12:35:04;36.60;1.00
37281;DHT22;23169;41.804;12.596;2022-08-05T12:37:34;36.50;1.00
37281;DHT22;23169;41.804;12.596;2022-08-05T12:40:07;37.30;1.00
37281;DHT22;23169;41.804;12.596;2022-08-05T12:42:38;37.50;1.00
37281;DHT22;23169;41.804;12.596;2022-08-05T12:45:08;37.60;1.00
37281;DHT22;23169;41.804;12.596;2022-08-05T12:47:41;37.50;1.00
37281;DHT22;23169;41.804;12.596;2022-08-05T12:50:14;37.30;1.00
37281;DHT22;23169;41.804;12.596;2022-08-05T12:52:56;37.10;1.00
37281;DHT22;23169;41.804;12.596;2022-08-05T12:55:28;37.00;1.00
37281;DHT22;23169;41.804;12.596;2022-08-05T12:57:58;36.60;1.00
37281;DHT22;23169;41.804;12.596;2022-08-05T13:00:27;36.50;1.00
37281;DHT22;23169;41.804;12.596;2022-08-05T13:03:01;36.80;1.00
37281;DHT22;23169;41.804;12.596;2022-08-05T13:05:29;36.80;1.00
37281;DHT22;23169;41.804;12.596;2022-08-05T13:07:58;37.20;1.00
37281;DHT22;23169;41.804;12.596;2022-08-05T13:10:30;37.40;1.00
37281;DHT22;23169;41.804;12.596;2022-08-05T13:13:00;37.00;1.00
37281;DHT22;23169;41.804;12.596;2022-08-05T13:15:29;37.20;1.00
37281;DHT22;23169;41.804;12.596;2022-08-05T13:18:01;37.30;1.00
37281;DHT22;23169;41.804;12.596;2022-08-05T13:20:33;37.70;1.00
37281;DHT22;23169;41.804;12.596;2022-08-05T13:23:02;37.80;1.00
37281;DHT22;23169;41.804;12.596;2022-08-05T13:25:30;37.90;1.00
37281;DHT22;23169;41.804;12.596;2022-08-05T13:27:59;38.30;1.00
37281;DHT22;23169;41.804;12.596;2022-08-05T13:30:27;38.50;1.00
37281;DHT22;23169;41.804;12.596;2022-08-05T13:32:56;38.40;1.00
37281;DHT22;23169;41.804;12.596;2022-08-05T13:35:25;38.10;1.00
37281;DHT22;23169;41.804;12.596;2022-08-05T13:37:53;37.60;1.00
37281;DHT22;23169;41.804;12.596;2022-08-05T13:40:21;37.60;1.00
37281;DHT22;23169;41.804;12.596;2022-08-05T13:42:49;37.10;1.00
37281;DHT22;23169;41.804;12.596;2022-08-05T13:45:18;37.10;1.00
37281;DHT22;23169;41.804;12.596;2022-08-05T13:47:47;36.90;1.00
37281;DHT22;23169;41.804;12.596;2022-08-05T13:50:15;36.80;1.00
37281;DHT22;23169;41.804;12.596;2022-08-05T13:52:46;36.80;1.00
37281;DHT22;23169;41.804;12.596;2022-08-05T13:55:15;36.60;1.00
37281;DHT22;23169;41.804;12.596;2022-08-05T13:57:43;36.90;1.00
37281;DHT22;23169;41.804;12.596;2022-08-05T14:00:11;37.30;1.00
37281;DHT22;23169;41.804;12.596;2022-08-05T14:02:43;37.50;1.00
37281;DHT22;23169;41.804;12.596;2022-08-05T14:05:11;37.20;1.00
37281;DHT22;23169;41.804;12.596;2022-08-05T14:07:43;37.70;1.00
37281;DHT22;23169;41.804;12.596;2022-08-05T14:10:14;37.20;1.00
37281;DHT22;23169;41.804;12.596;2022-08-05T14:12:43;37.10;1.00
37281;DHT22;23169;41.804;12.596;2022-08-05T14:15:12;37.30;1.00
37281;DHT22;23169;41.804;12.596;2022-08-05T14:17:41;37.40;1.00
37281;DHT22;23169;41.804;12.596;2022-08-05T14:20:10;37.60;1.00
37281;DHT22;23169;41.804;12.596;2022-08-05T14:22:38;37.60;1.00
37281;DHT22;23169;41.804;12.596;2022-08-05T14:25:07;37.50;1.00
37281;DHT22;23169;41.804;12.596;2022-08-05T14:27:36;37.60;1.00
37281;DHT22;23169;41.804;12.596;2022-08-05T14:30:05;37.10;1.00
37281;DHT22;23169;41.804;12.596;2022-08-05T14:32:34;36.90;1.00
37281;DHT22;23169;41.804;12.596;2022-08-05T14:35:04;37.00;1.00
37281;DHT22;23169;41.804;12.596;2022-08-05T14:37:32;37.00;1.00
37281;DHT22;23169;41.804;12.596;2022-08-05T14:40:01;37.20;1.00
37281;DHT22;23169;41.804;12.596;2022-08-05T14:42:29;37.60;1.00
37281;DHT22;23169;41.804;12.596;2022-08-05T14:44:57;38.20;1.00
37281;DHT22;23169;41.804;12.596;2022-08-05T14:47:25;38.40;1.00
37281;DHT22;23169;41.804;12.596;2022-08-05T14:49:54;38.50;1.00
37281;DHT22;23169;41.804;12.596;2022-08-05T14:52:22;38.30;1.00
37281;DHT22;23169;41.804;12.596;2022-08-05T14:54:50;38.30;1.00
37281;DHT22;23169;41.804;12.596;2022-08-05T14:57:18;38.00;1.00
37281;DHT22;23169;41.804;12.596;2022-08-05T14:59:47;37.80;1.00
37281;DHT22;23169;41.804;12.596;2022-08-05T15:02:15;37.70;1.00
37281;DHT22;23169;41.804;12.596;2022-08-05T15:04:43;37.60;1.00
37281;DHT22;23169;41.804;12.596;2022-08-05T15:07:13;37.90;1.00
37281;DHT22;23169;41.804;12.596;2022-08-05T15:09:41;38.50;1.00
37281;DHT22;23169;41.804;12.596;2022-08-05T15:12:09;38.70;1.00
37281;DHT22;23169;41.804;12.596;2022-08-05T15:14:38;39.10;1.00
37281;DHT22;23169;41.804;12.596;2022-08-05T15:17:06;39.10;1.00
37281;DHT22;23169;41.804;12.596;2022-08-05T15:19:36;38.60;1.00
37281;DHT22;23169;41.804;12.596;2022-08-05T15:22:04;37.90;1.00
37281;DHT22;23169;41.804;12.596;2022-08-05T15:24:33;38.20;1.00
37281;DHT22;23169;41.804;12.596;2022-08-05T15:27:01;38.60;1.00
37281;DHT22;23169;41.804;12.596;2022-08-05T15:29:30;39.00;1.00
37281;DHT22;23169;41.804;12.596;2022-08-05T15:31:58;38.50;1.00
37281;DHT22;23169;41.804;12.596;2022-08-05T15:34:26;38.70;1.00
37281;DHT22;23169;41.804;12.596;2022-08-05T15:36:54;39.00;1.00
37281;DHT22;23169;41.804;12.596;2022-08-05T15:39:22;38.50;1.00
37281;DHT22;23169;41.804;12.596;2022-08-05T15:41:50;38.20;1.00
37281;DHT22;23169;41.804;12.596;2022-08-05T15:44:18;38.50;1.00
37281;DHT22;23169;41.804;12.596;2022-08-05T15:46:47;38.50;1.00
37281;DHT22;23169;41.804;12.596;2022-08-05T15:49:16;38.40;1.00
37281;DHT22;23169;41.804;12.596;2022-08-05T15:51:45;38.20;1.00
37281;DHT22;23169;41.804;12.596;2022-08-05T15:54:14;38.10;1.00
37281;DHT22;23169;41.804;12.596;2022-08-05T15:56:42;37.80;1.00
37281;DHT22;23169;41.804;12.596;2022-08-05T15:59:10;37.50;1.00
37281;DHT22;23169;41.804;12.596;2022-08-05T16:01:38;37.30;1.00
37281;DHT22;23169;41.804;12.596;2022-08-05T16:04:07;37.10;1.00
37281;DHT22;23169;41.804;12.596;2022-08-05T16:06:36;36.20;1.00
37281;DHT22;23169;41.804;12.596;2022-08-05T16:09:04;35.30;1.00
37281;DHT22;23169;41.804;12.596;2022-08-05T16:11:35;34.60;3.00
37281;DHT22;23169;41.804;12.596;2022-08-05T16:14:03;33.80;15.90